createdAt,value
2017-01-21T00:00:53.499Z,0
2017-01-21T00:01:53.441Z,0
2017-01-21T00:02:53.401Z,0
2017-01-21T00:03:53.354Z,0
2017-01-21T00:04:53.311Z,0
2017-01-21T00:05:52.875Z,0
2017-01-21T00:06:53.210Z,0
2017-01-21T00:07:53.166Z,0
2017-01-21T00:08:53.126Z,0
2017-01-21T00:09:53.080Z,0
2017-01-21T00:10:52.660Z,0
2017-01-21T00:11:52.216Z,0
2017-01-21T00:12:52.551Z,0
2017-01-21T00:13:52.902Z,0
2017-01-21T00:14:51.689Z,0
2017-01-21T00:15:52.030Z,0
2017-01-21T00:16:52.753Z,0
2017-01-21T00:17:52.701Z,0
2017-01-21T00:18:52.660Z,0
2017-01-21T00:19:52.232Z,0
2017-01-21T00:20:52.190Z,0
2017-01-21T00:21:52.132Z,0
2017-01-21T00:22:52.480Z,0
2017-01-21T00:23:52.441Z,0
2017-01-21T00:24:51.998Z,0
2017-01-21T00:25:52.342Z,0
2017-01-21T00:26:51.904Z,0
2017-01-21T00:27:51.472Z,0
2017-01-21T00:28:52.203Z,0
2017-01-21T00:29:52.150Z,0
2017-01-21T00:30:51.720Z,0
2017-01-21T00:31:52.054Z,0
2017-01-21T00:32:51.624Z,0
2017-01-21T00:33:51.963Z,0
2017-01-21T00:34:51.918Z,0
2017-01-21T00:35:51.102Z,0
2017-01-21T00:36:51.439Z,0
2017-01-21T00:37:51.779Z,0
2017-01-21T00:38:51.734Z,0
2017-01-21T00:39:51.302Z,0
2017-01-21T00:40:51.258Z,0
2017-01-21T00:41:51.213Z,0
2017-01-21T00:42:50.781Z,0
2017-01-21T00:43:51.136Z,0
2017-01-21T00:44:51.454Z,0
2017-01-21T00:45:50.638Z,0
2017-01-21T00:46:51.365Z,0
2017-01-21T00:47:50.928Z,0
2017-01-21T00:48:51.271Z,0
2017-01-21T00:49:51.218Z,0
2017-01-21T00:50:50.799Z,0
2017-01-21T00:51:50.752Z,0
2017-01-21T00:52:51.084Z,0
2017-01-21T00:53:50.653Z,0
2017-01-21T00:54:50.997Z,0
2017-01-21T00:55:50.560Z,0
2017-01-21T00:56:50.514Z,0
2017-01-21T00:57:50.459Z,0
2017-01-21T00:58:50.810Z,0
2017-01-21T00:59:50.368Z,0
2017-01-21T01:00:50.710Z,0
2017-01-21T01:01:50.667Z,0
2017-01-21T01:02:50.618Z,0
2017-01-21T01:03:50.187Z,0
2017-01-21T01:04:49.755Z,0
2017-01-21T01:05:50.487Z,0
2017-01-21T01:06:50.431Z,0
2017-01-21T01:07:50.383Z,0
2017-01-21T01:08:50.353Z,0
2017-01-21T01:09:50.297Z,0
2017-01-21T01:10:49.867Z,0
2017-01-21T01:11:50.263Z,0
2017-01-21T01:12:49.767Z,0
2017-01-21T01:13:49.337Z,0
2017-01-21T01:14:49.679Z,0
2017-01-21T01:15:49.254Z,0
2017-01-21T01:16:49.621Z,0
2017-01-21T01:17:49.548Z,0
2017-01-21T01:18:49.495Z,0
2017-01-21T01:19:49.450Z,0
2017-01-21T01:20:49.782Z,0
2017-01-21T01:21:49.365Z,0
2017-01-21T01:22:49.699Z,0
2017-01-21T01:23:49.677Z,0
2017-01-21T01:24:49.599Z,0
2017-01-21T01:25:49.553Z,0
2017-01-21T01:26:49.510Z,0
2017-01-21T01:27:49.463Z,0
2017-01-21T01:28:49.413Z,0
2017-01-21T01:29:48.984Z,0
2017-01-21T01:30:49.324Z,0
2017-01-21T01:31:49.276Z,0
2017-01-21T01:32:48.843Z,0
2017-01-21T01:33:49.182Z,0
2017-01-21T01:34:49.137Z,0
2017-01-21T01:35:48.321Z,0
2017-01-21T01:36:49.055Z,0
2017-01-21T01:37:48.999Z,0
2017-01-21T01:38:48.957Z,0
2017-01-21T01:39:48.535Z,0
2017-01-21T01:40:48.888Z,0
2017-01-21T01:41:48.813Z,0
2017-01-21T01:42:48.773Z,0
2017-01-21T01:43:48.725Z,0
2017-01-21T01:44:48.675Z,0
2017-01-21T01:45:48.252Z,0
2017-01-21T01:46:48.195Z,0
2017-01-21T01:47:48.538Z,0
2017-01-21T01:48:48.496Z,0
2017-01-21T01:49:48.101Z,0
2017-01-21T01:50:48.411Z,0
2017-01-21T01:51:48.363Z,0
2017-01-21T01:52:47.538Z,0
2017-01-21T01:53:48.264Z,0
2017-01-21T01:54:48.217Z,0
2017-01-21T01:55:47.789Z,0
2017-01-21T01:56:48.129Z,0
2017-01-21T01:57:48.084Z,0
2017-01-21T01:58:47.295Z,0
2017-01-21T01:59:47.989Z,0
2017-01-21T02:00:47.945Z,0
2017-01-21T02:01:46.738Z,0
2017-01-21T02:02:47.850Z,0
2017-01-21T02:03:47.808Z,0
2017-01-21T02:04:46.994Z,0
2017-01-21T02:05:47.712Z,0
2017-01-21T02:06:47.662Z,0
2017-01-21T02:07:47.620Z,0
2017-01-21T02:08:47.574Z,0
2017-01-21T02:09:47.522Z,0
2017-01-21T02:10:47.482Z,0
2017-01-21T02:11:47.051Z,0
2017-01-21T02:12:46.625Z,0
2017-01-21T02:13:47.339Z,0
2017-01-21T02:14:46.909Z,0
2017-01-21T02:15:47.253Z,0
2017-01-21T02:16:47.204Z,0
2017-01-21T02:17:47.155Z,0
2017-01-21T02:18:46.727Z,0
2017-01-21T02:19:46.675Z,0
2017-01-21T02:20:47.022Z,0
2017-01-21T02:21:46.583Z,0
2017-01-21T02:22:46.925Z,0
2017-01-21T02:23:46.504Z,0
2017-01-21T02:24:46.837Z,0
2017-01-21T02:25:46.419Z,0
2017-01-21T02:26:46.360Z,0
2017-01-21T02:27:46.696Z,0
2017-01-21T02:28:46.647Z,0
2017-01-21T02:29:46.602Z,0
2017-01-21T02:30:46.558Z,0
2017-01-21T02:31:46.125Z,0
2017-01-21T02:32:46.471Z,0
2017-01-21T02:33:46.041Z,0
2017-01-21T02:34:45.985Z,0
2017-01-21T02:35:45.940Z,0
2017-01-21T02:36:45.926Z,0
2017-01-21T02:37:46.230Z,0
2017-01-21T02:38:46.214Z,0
2017-01-21T02:39:45.751Z,0
2017-01-21T02:40:46.087Z,0
2017-01-21T02:41:46.055Z,0
2017-01-21T02:42:45.615Z,0
2017-01-21T02:43:45.181Z,0
2017-01-21T02:44:45.144Z,0
2017-01-21T02:45:45.878Z,0
2017-01-21T02:46:45.825Z,0
2017-01-21T02:47:45.384Z,0
2017-01-21T02:48:45.731Z,0
2017-01-21T02:49:45.293Z,0
2017-01-21T02:50:45.642Z,0
2017-01-21T02:51:45.590Z,0
2017-01-21T02:52:44.771Z,0
2017-01-21T02:53:45.108Z,0
2017-01-21T02:54:45.064Z,0
2017-01-21T02:55:45.423Z,0
2017-01-21T02:56:45.359Z,0
2017-01-21T02:57:45.309Z,0
2017-01-21T02:58:44.887Z,0
2017-01-21T02:59:45.216Z,0
2017-01-21T03:00:44.783Z,0
2017-01-21T03:01:44.745Z,0
2017-01-21T03:02:45.077Z,0
2017-01-21T03:03:44.265Z,0
2017-01-21T03:04:44.986Z,0
2017-01-21T03:05:44.550Z,0
2017-01-21T03:06:44.897Z,0
2017-01-21T03:07:44.849Z,0
2017-01-21T03:08:44.895Z,0
2017-01-21T03:09:44.385Z,0
2017-01-21T03:10:43.939Z,0
2017-01-21T03:11:44.281Z,0
2017-01-21T03:12:44.238Z,0
2017-01-21T03:13:44.194Z,0
2017-01-21T03:14:44.603Z,0
2017-01-21T03:15:44.099Z,0
2017-01-21T03:16:44.429Z,0
2017-01-21T03:17:44.001Z,0
2017-01-21T03:18:44.346Z,0
2017-01-21T03:19:44.290Z,0
2017-01-21T03:20:43.866Z,0
2017-01-21T03:21:43.816Z,0
2017-01-21T03:22:43.418Z,0
2017-01-21T03:23:43.724Z,0
2017-01-21T03:24:43.679Z,0
2017-01-21T03:25:43.628Z,0
2017-01-21T03:26:43.969Z,0
2017-01-21T03:27:43.540Z,0
2017-01-21T03:28:43.879Z,0
2017-01-21T03:29:43.832Z,0
2017-01-21T03:30:43.424Z,0
2017-01-21T03:31:43.364Z,0
2017-01-21T03:32:43.694Z,0
2017-01-21T03:33:42.877Z,0
2017-01-21T03:34:43.609Z,0
2017-01-21T03:35:43.560Z,0
2017-01-21T03:36:43.135Z,0
2017-01-21T03:37:43.470Z,0
2017-01-21T03:38:43.418Z,0
2017-01-21T03:39:43.374Z,0
2017-01-21T03:40:42.558Z,0
2017-01-21T03:41:43.278Z,0
2017-01-21T03:42:43.234Z,0
2017-01-21T03:43:42.805Z,0
2017-01-21T03:44:42.758Z,0
2017-01-21T03:45:43.094Z,0
2017-01-21T03:46:42.669Z,0
2017-01-21T03:47:42.235Z,0
2017-01-21T03:48:42.963Z,0
2017-01-21T03:49:42.910Z,0
2017-01-21T03:50:42.507Z,0
2017-01-21T03:51:42.831Z,0
2017-01-21T03:52:42.774Z,0
2017-01-21T03:53:42.728Z,0
2017-01-21T03:54:41.907Z,0
2017-01-21T03:55:42.640Z,0
2017-01-21T03:56:42.605Z,0
2017-01-21T03:57:42.540Z,0
2017-01-21T03:58:42.501Z,0
2017-01-21T03:59:42.063Z,0
2017-01-21T04:00:42.408Z,0
2017-01-21T04:01:42.373Z,0
2017-01-21T04:02:42.317Z,0
2017-01-21T04:03:42.268Z,0
2017-01-21T04:04:41.834Z,0
2017-01-21T04:05:42.177Z,0
2017-01-21T04:06:42.130Z,0
2017-01-21T04:07:42.090Z,0
2017-01-21T04:08:42.037Z,0
2017-01-21T04:09:42.020Z,0
2017-01-21T04:10:41.948Z,0
2017-01-21T04:11:41.511Z,0
2017-01-21T04:12:41.464Z,0
2017-01-21T04:13:41.802Z,0
2017-01-21T04:14:41.380Z,0
2017-01-21T04:15:41.327Z,0
2017-01-21T04:16:41.669Z,0
2017-01-21T04:17:41.693Z,0
2017-01-21T04:18:40.804Z,0
2017-01-21T04:19:41.530Z,0
2017-01-21T04:20:41.103Z,0
2017-01-21T04:21:41.442Z,0
2017-01-21T04:22:41.393Z,0
2017-01-21T04:23:41.342Z,0
2017-01-21T04:24:41.298Z,0
2017-01-21T04:25:40.503Z,0
2017-01-21T04:26:40.822Z,0
2017-01-21T04:27:40.389Z,0
2017-01-21T04:28:41.119Z,0
2017-01-21T04:29:40.690Z,0
2017-01-21T04:30:40.283Z,0
2017-01-21T04:31:40.981Z,0
2017-01-21T04:32:40.958Z,0
2017-01-21T04:33:40.885Z,0
2017-01-21T04:34:40.451Z,0
2017-01-21T04:35:40.794Z,0
2017-01-21T04:36:39.982Z,0
2017-01-21T04:37:40.326Z,0
2017-01-21T04:38:40.654Z,0
2017-01-21T04:39:40.610Z,0
2017-01-21T04:40:40.188Z,0
2017-01-21T04:41:40.515Z,0
2017-01-21T04:42:39.703Z,0
2017-01-21T04:43:39.656Z,0
2017-01-21T04:44:39.603Z,0
2017-01-21T04:45:40.358Z,0
2017-01-21T04:46:39.900Z,0
2017-01-21T04:47:39.476Z,0
2017-01-21T04:48:39.811Z,0
2017-01-21T04:49:39.763Z,0
2017-01-21T04:50:40.101Z,0
2017-01-21T04:51:40.059Z,0
2017-01-21T04:52:40.011Z,0
2017-01-21T04:53:39.962Z,0
2017-01-21T04:54:39.915Z,0
2017-01-21T04:55:39.872Z,0
2017-01-21T04:56:39.838Z,0
2017-01-21T04:57:39.789Z,0
2017-01-21T04:58:39.349Z,0
2017-01-21T04:59:39.691Z,0
2017-01-21T05:00:38.872Z,0
2017-01-21T05:01:39.234Z,0
2017-01-21T05:02:39.551Z,0
2017-01-21T05:03:39.509Z,0
2017-01-21T05:04:39.453Z,0
2017-01-21T05:05:39.414Z,0
2017-01-21T05:06:39.363Z,0
2017-01-21T05:07:39.326Z,0
2017-01-21T05:08:39.279Z,0
2017-01-21T05:09:38.852Z,0
2017-01-21T05:10:39.183Z,0
2017-01-21T05:11:39.146Z,0
2017-01-21T05:12:38.715Z,0
2017-01-21T05:13:39.047Z,0
2017-01-21T05:14:38.611Z,0
2017-01-21T05:15:38.176Z,0
2017-01-21T05:16:38.522Z,0
2017-01-21T05:17:38.858Z,0
2017-01-21T05:18:38.433Z,0
2017-01-21T05:19:38.378Z,0
2017-01-21T05:20:38.334Z,0
2017-01-21T05:21:38.289Z,0
2017-01-21T05:22:38.242Z,0
2017-01-21T05:23:38.204Z,0
2017-01-21T05:24:38.150Z,0
2017-01-21T05:25:38.491Z,0
2017-01-21T05:26:38.441Z,0
2017-01-21T05:27:38.395Z,0
2017-01-21T05:28:38.356Z,0
2017-01-21T05:29:37.916Z,0
2017-01-21T05:30:38.277Z,0
2017-01-21T05:31:38.207Z,0
2017-01-21T05:32:37.786Z,0
2017-01-21T05:33:37.732Z,0
2017-01-21T05:34:37.698Z,0
2017-01-21T05:35:37.640Z,0
2017-01-21T05:36:37.599Z,0
2017-01-21T05:37:37.938Z,0
2017-01-21T05:38:37.886Z,0
2017-01-21T05:39:37.840Z,0
2017-01-21T05:40:37.028Z,0
2017-01-21T05:41:37.747Z,0
2017-01-21T05:42:37.698Z,0
2017-01-21T05:43:37.660Z,0
2017-01-21T05:44:37.228Z,0
2017-01-21T05:45:36.794Z,0
2017-01-21T05:46:37.519Z,0
2017-01-21T05:47:37.469Z,0
2017-01-21T05:48:37.425Z,0
2017-01-21T05:49:37.387Z,0
2017-01-21T05:50:37.331Z,0
2017-01-21T05:51:36.524Z,0
2017-01-21T05:52:36.855Z,0
2017-01-21T05:53:37.198Z,0
2017-01-21T05:54:36.760Z,0
2017-01-21T05:55:37.105Z,0
2017-01-21T05:56:36.667Z,0
2017-01-21T05:57:37.014Z,0
2017-01-21T05:58:36.974Z,0
2017-01-21T05:59:36.919Z,0
2017-01-21T06:00:36.873Z,0
2017-01-21T06:01:36.435Z,0
2017-01-21T06:02:36.782Z,0
2017-01-21T06:03:35.964Z,0
2017-01-21T06:04:36.684Z,0
2017-01-21T06:05:36.651Z,0
2017-01-21T06:06:35.828Z,0
2017-01-21T06:07:36.553Z,0
2017-01-21T06:08:36.505Z,0
2017-01-21T06:09:36.455Z,0
2017-01-21T06:10:36.029Z,0
2017-01-21T06:11:36.362Z,0
2017-01-21T06:12:36.315Z,0
2017-01-21T06:13:35.885Z,0
2017-01-21T06:14:36.229Z,0
2017-01-21T06:15:36.183Z,0
2017-01-21T06:16:35.383Z,0
2017-01-21T06:17:36.089Z,0
2017-01-21T06:18:36.051Z,0
2017-01-21T06:19:35.222Z,0
2017-01-21T06:20:35.570Z,0
2017-01-21T06:21:35.898Z,0
2017-01-21T06:22:35.472Z,0
2017-01-21T06:23:35.427Z,0
2017-01-21T06:24:35.374Z,0
2017-01-21T06:25:35.374Z,0
2017-01-21T06:26:35.671Z,0
2017-01-21T06:27:35.623Z,0
2017-01-21T06:28:35.194Z,0
2017-01-21T06:29:35.147Z,0
2017-01-21T06:30:35.487Z,0
2017-01-21T06:31:35.055Z,0
2017-01-21T06:32:35.396Z,0
2017-01-21T06:33:35.345Z,0
2017-01-21T06:34:34.919Z,0
2017-01-21T06:35:34.872Z,0
2017-01-21T06:36:35.205Z,0
2017-01-21T06:37:34.011Z,0
2017-01-21T06:38:34.745Z,0
2017-01-21T06:39:35.069Z,0
2017-01-21T06:40:34.637Z,0
2017-01-21T06:41:34.978Z,0
2017-01-21T06:42:34.545Z,0
2017-01-21T06:43:34.115Z,0
2017-01-21T06:44:34.838Z,0
2017-01-21T06:45:34.789Z,0
2017-01-21T06:46:34.367Z,0
2017-01-21T06:47:34.311Z,0
2017-01-21T06:48:34.656Z,0
2017-01-21T06:49:34.221Z,0
2017-01-21T06:50:34.561Z,0
2017-01-21T06:51:34.516Z,0
2017-01-21T06:52:34.119Z,0
2017-01-21T06:53:34.420Z,0
2017-01-21T06:54:33.993Z,0
2017-01-21T06:55:34.329Z,0
2017-01-21T06:56:34.283Z,0
2017-01-21T06:57:34.236Z,0
2017-01-21T06:58:33.426Z,0
2017-01-21T06:59:33.764Z,0
2017-01-21T07:00:34.108Z,0
2017-01-21T07:01:33.674Z,0
2017-01-21T07:02:33.622Z,0
2017-01-21T07:03:33.970Z,0
2017-01-21T07:04:33.530Z,0
2017-01-21T07:05:33.894Z,0
2017-01-21T07:06:33.052Z,0
2017-01-21T07:07:33.783Z,0
2017-01-21T07:08:33.728Z,0
2017-01-21T07:09:33.686Z,0
2017-01-21T07:10:33.642Z,0
2017-01-21T07:11:33.590Z,0
2017-01-21T07:12:33.169Z,0
2017-01-21T07:13:33.508Z,0
2017-01-21T07:14:33.457Z,5
2017-01-21T07:15:33.021Z,5
2017-01-21T07:16:32.981Z,5
2017-01-21T07:17:32.935Z,5
2017-01-21T07:18:32.886Z,5
2017-01-21T07:19:32.838Z,5
2017-01-21T07:20:33.181Z,5
2017-01-21T07:21:33.129Z,5
2017-01-21T07:22:33.087Z,5
2017-01-21T07:23:32.656Z,5
2017-01-21T07:24:31.839Z,5
2017-01-21T07:25:32.564Z,5
2017-01-21T07:26:32.902Z,5
2017-01-21T07:27:32.467Z,10
2017-01-21T07:28:32.813Z,10
2017-01-21T07:29:31.990Z,10
2017-01-21T07:30:32.330Z,10
2017-01-21T07:31:32.288Z,10
2017-01-21T07:32:32.241Z,10
2017-01-21T07:33:32.580Z,10
2017-01-21T07:34:32.156Z,10
2017-01-21T07:35:31.725Z,10
2017-01-21T07:36:32.442Z,10
2017-01-21T07:37:32.399Z,10
2017-01-21T07:38:31.958Z,10
2017-01-21T07:39:31.914Z,15
2017-01-21T07:40:31.870Z,15
2017-01-21T07:41:31.820Z,15
2017-01-21T07:42:31.779Z,15
2017-01-21T07:43:32.145Z,15
2017-01-21T07:44:31.688Z,15
2017-01-21T07:45:31.644Z,15
2017-01-21T07:46:31.976Z,15
2017-01-21T07:47:31.547Z,15
2017-01-21T07:48:31.497Z,15
2017-01-21T07:49:31.454Z,15
2017-01-21T07:50:31.406Z,15
2017-01-21T07:51:30.977Z,20
2017-01-21T07:52:31.701Z,20
2017-01-21T07:53:31.649Z,20
2017-01-21T07:54:30.843Z,20
2017-01-21T07:55:31.177Z,20
2017-01-21T07:56:31.154Z,20
2017-01-21T07:57:31.086Z,20
2017-01-21T07:58:31.431Z,25
2017-01-21T07:59:30.993Z,25
2017-01-21T08:00:31.341Z,25
2017-01-21T08:01:31.297Z,25
2017-01-21T08:02:30.861Z,25
2017-01-21T08:03:30.043Z,25
2017-01-21T08:04:31.156Z,25
2017-01-21T08:05:30.743Z,25
2017-01-21T08:06:31.062Z,25
2017-01-21T08:07:30.244Z,25
2017-01-21T08:08:30.962Z,25
2017-01-21T08:09:30.155Z,25
2017-01-21T08:10:30.880Z,25
2017-01-21T08:11:30.437Z,25
2017-01-21T08:12:30.780Z,30
2017-01-21T08:13:30.734Z,25
2017-01-21T08:14:30.299Z,30
2017-01-21T08:15:29.898Z,30
2017-01-21T08:16:30.206Z,30
2017-01-21T08:17:29.783Z,30
2017-01-21T08:18:30.510Z,30
2017-01-21T08:19:30.460Z,30
2017-01-21T08:20:30.024Z,35
2017-01-21T08:21:30.530Z,35
2017-01-21T08:22:30.473Z,35
2017-01-21T08:23:30.820Z,35
2017-01-21T08:24:30.378Z,35
2017-01-21T08:25:30.719Z,35
2017-01-21T08:26:30.688Z,35
2017-01-21T08:27:30.246Z,40
2017-01-21T08:28:30.597Z,40
2017-01-21T08:29:30.535Z,40
2017-01-21T08:30:30.110Z,40
2017-01-21T08:31:30.058Z,40
2017-01-21T08:32:30.016Z,40
2017-01-21T08:33:30.360Z,40
2017-01-21T08:34:30.303Z,40
2017-01-21T08:35:29.507Z,40
2017-01-21T08:36:30.245Z,45
2017-01-21T08:37:29.399Z,45
2017-01-21T08:38:29.348Z,45
2017-01-21T08:39:30.088Z,45
2017-01-21T08:40:29.262Z,45
2017-01-21T08:41:29.597Z,45
2017-01-21T08:42:29.942Z,45
2017-01-21T08:43:29.892Z,45
2017-01-21T08:44:29.840Z,45
2017-01-21T08:45:29.797Z,45
2017-01-21T08:46:29.364Z,45
2017-01-21T08:47:29.336Z,45
2017-01-21T08:48:29.276Z,45
2017-01-21T08:49:29.256Z,50
2017-01-21T08:50:29.570Z,50
2017-01-21T08:51:29.527Z,50
2017-01-21T08:52:29.095Z,50
2017-01-21T08:53:29.439Z,50
2017-01-21T08:54:29.385Z,50
2017-01-21T08:55:28.574Z,50
2017-01-21T08:56:29.295Z,50
2017-01-21T08:57:28.869Z,50
2017-01-21T08:58:29.220Z,50
2017-01-21T08:59:28.394Z,55
2017-01-21T09:00:29.113Z,55
2017-01-21T09:01:28.687Z,55
2017-01-21T09:02:28.633Z,55
2017-01-21T09:03:28.210Z,55
2017-01-21T09:04:28.550Z,55
2017-01-21T09:05:28.506Z,55
2017-01-21T09:06:28.074Z,55
2017-01-21T09:07:28.404Z,55
2017-01-21T09:08:28.769Z,55
2017-01-21T09:09:27.926Z,55
2017-01-21T09:10:28.276Z,55
2017-01-21T09:11:28.218Z,55
2017-01-21T09:12:28.188Z,55
2017-01-21T09:13:28.516Z,55
2017-01-21T09:14:28.091Z,55
2017-01-21T09:15:28.435Z,55
2017-01-21T09:16:28.012Z,55
2017-01-21T09:17:28.345Z,55
2017-01-21T09:18:27.519Z,60
2017-01-21T09:19:27.860Z,60
2017-01-21T09:20:28.212Z,60
2017-01-21T09:21:27.390Z,60
2017-01-21T09:22:28.107Z,65
2017-01-21T09:23:27.680Z,65
2017-01-21T09:24:27.248Z,65
2017-01-21T09:25:27.971Z,65
2017-01-21T09:26:27.539Z,65
2017-01-21T09:27:27.879Z,65
2017-01-21T09:28:27.183Z,65
2017-01-21T09:29:27.791Z,65
2017-01-21T09:30:27.361Z,65
2017-01-21T09:31:27.321Z,65
2017-01-21T09:32:26.916Z,65
2017-01-21T09:33:27.258Z,65
2017-01-21T09:34:26.413Z,70
2017-01-21T09:35:26.759Z,70
2017-01-21T09:36:26.703Z,75
2017-01-21T09:37:27.448Z,75
2017-01-21T09:38:27.384Z,75
2017-01-21T09:39:27.342Z,80
2017-01-21T09:40:26.920Z,80
2017-01-21T09:41:27.242Z,85
2017-01-21T09:42:26.811Z,90
2017-01-21T09:43:27.155Z,95
2017-01-21T09:44:27.106Z,100
2017-01-21T09:45:26.680Z,100
2017-01-21T09:46:26.631Z,100
2017-01-21T09:47:26.591Z,100
2017-01-21T09:48:26.535Z,100
2017-01-21T09:49:26.111Z,100
2017-01-21T09:50:26.079Z,105
2017-01-21T09:51:26.052Z,100
2017-01-21T09:52:25.585Z,100
2017-01-21T09:53:26.315Z,100
2017-01-21T09:54:26.653Z,95
2017-01-21T09:55:26.219Z,95
2017-01-21T09:56:26.181Z,100
2017-01-21T09:57:26.516Z,95
2017-01-21T09:58:25.700Z,100
2017-01-21T09:59:26.074Z,105
2017-01-21T10:00:25.228Z,105
2017-01-21T10:01:25.958Z,100
2017-01-21T10:02:25.925Z,105
2017-01-21T10:03:25.862Z,105
2017-01-21T10:04:26.203Z,105
2017-01-21T10:05:26.170Z,105
2017-01-21T10:06:26.117Z,105
2017-01-21T10:07:25.681Z,105
2017-01-21T10:08:25.649Z,105
2017-01-21T10:09:25.203Z,105
2017-01-21T10:10:25.927Z,105
2017-01-21T10:11:25.517Z,105
2017-01-21T10:12:25.464Z,105
2017-01-21T10:13:25.787Z,105
2017-01-21T10:14:25.369Z,105
2017-01-21T10:15:25.320Z,105
2017-01-21T10:16:25.653Z,105
2017-01-21T10:17:25.619Z,110
2017-01-21T10:18:25.566Z,110
2017-01-21T10:19:25.138Z,110
2017-01-21T10:20:25.487Z,110
2017-01-21T10:21:25.430Z,110
2017-01-21T10:22:25.392Z,115
2017-01-21T10:23:25.338Z,115
2017-01-21T10:24:24.918Z,115
2017-01-21T10:25:24.867Z,115
2017-01-21T10:26:24.442Z,115
2017-01-21T10:27:24.786Z,115
2017-01-21T10:28:25.123Z,115
2017-01-21T10:29:24.685Z,115
2017-01-21T10:30:25.021Z,110
2017-01-21T10:31:24.215Z,110
2017-01-21T10:32:23.804Z,115
2017-01-21T10:33:24.510Z,115
2017-01-21T10:34:24.864Z,115
2017-01-21T10:35:24.814Z,115
2017-01-21T10:36:24.374Z,115
2017-01-21T10:37:23.561Z,120
2017-01-21T10:38:24.667Z,125
2017-01-21T10:39:24.627Z,130
2017-01-21T10:40:23.816Z,130
2017-01-21T10:41:23.770Z,135
2017-01-21T10:42:24.498Z,135
2017-01-21T10:43:24.063Z,135
2017-01-21T10:44:24.399Z,135
2017-01-21T10:45:23.588Z,140
2017-01-21T10:46:23.930Z,140
2017-01-21T10:47:23.891Z,140
2017-01-21T10:48:23.834Z,140
2017-01-21T10:49:23.817Z,145
2017-01-21T10:50:23.762Z,145
2017-01-21T10:51:23.316Z,145
2017-01-21T10:52:23.276Z,150
2017-01-21T10:53:23.999Z,145
2017-01-21T10:54:23.959Z,145
2017-01-21T10:55:23.530Z,145
2017-01-21T10:56:23.100Z,145
2017-01-21T10:57:23.098Z,145
2017-01-21T10:58:23.397Z,145
2017-01-21T10:59:23.357Z,150
2017-01-21T11:00:23.315Z,145
2017-01-21T11:01:23.267Z,145
2017-01-21T11:02:23.602Z,140
2017-01-21T11:03:23.581Z,135
2017-01-21T11:04:22.741Z,130
2017-01-21T11:05:23.085Z,135
2017-01-21T11:06:23.038Z,145
2017-01-21T11:07:22.619Z,150
2017-01-21T11:08:22.568Z,155
2017-01-21T11:09:22.538Z,155
2017-01-21T11:10:23.251Z,155
2017-01-21T11:11:22.820Z,155
2017-01-21T11:12:22.778Z,150
2017-01-21T11:13:23.121Z,145
2017-01-21T11:14:22.691Z,150
2017-01-21T11:15:23.145Z,150
2017-01-21T11:16:22.608Z,145
2017-01-21T11:17:22.559Z,140
2017-01-21T11:18:22.512Z,140
2017-01-21T11:19:22.471Z,145
2017-01-21T11:20:22.049Z,140
2017-01-21T11:21:22.392Z,140
2017-01-21T11:22:22.346Z,135
2017-01-21T11:23:22.686Z,135
2017-01-21T11:24:22.251Z,125
2017-01-21T11:25:22.595Z,120
2017-01-21T11:26:22.163Z,125
2017-01-21T11:27:23.252Z,125
2017-01-21T11:28:22.468Z,125
2017-01-21T11:29:22.061Z,125
2017-01-21T11:30:21.992Z,130
2017-01-21T11:31:22.346Z,125
2017-01-21T11:32:22.293Z,115
2017-01-21T11:33:22.248Z,120
2017-01-21T11:34:22.205Z,120
2017-01-21T11:35:21.385Z,120
2017-01-21T11:36:21.736Z,120
2017-01-21T11:37:21.689Z,130
2017-01-21T11:38:22.028Z,130
2017-01-21T11:39:21.982Z,130
2017-01-21T11:40:21.943Z,130
2017-01-21T11:41:21.893Z,125
2017-01-21T11:42:21.466Z,125
2017-01-21T11:43:21.818Z,125
2017-01-21T11:44:21.766Z,125
2017-01-21T11:45:21.717Z,120
2017-01-21T11:46:21.289Z,115
2017-01-21T11:47:21.257Z,115
2017-01-21T11:48:21.600Z,115
2017-01-21T11:49:21.176Z,115
2017-01-21T11:50:21.127Z,120
2017-01-21T11:51:21.460Z,120
2017-01-21T11:52:20.644Z,120
2017-01-21T11:53:20.986Z,120
2017-01-21T11:54:20.940Z,120
2017-01-21T11:55:21.298Z,125
2017-01-21T11:56:20.853Z,130
2017-01-21T11:57:21.199Z,135
2017-01-21T11:58:21.160Z,140
2017-01-21T11:59:20.338Z,150
2017-01-21T12:00:20.687Z,155
2017-01-21T12:01:21.028Z,155
2017-01-21T12:02:20.988Z,160
2017-01-21T12:03:20.561Z,160
2017-01-21T12:04:20.886Z,155
2017-01-21T12:05:20.463Z,155
2017-01-21T12:06:20.812Z,155
2017-01-21T12:07:20.770Z,155
2017-01-21T12:08:20.717Z,155
2017-01-21T12:09:19.916Z,145
2017-01-21T12:10:20.242Z,140
2017-01-21T12:11:20.589Z,140
2017-01-21T12:12:20.540Z,145
2017-01-21T12:13:20.497Z,145
2017-01-21T12:14:20.447Z,150
2017-01-21T12:15:19.640Z,150
2017-01-21T12:16:20.385Z,150
2017-01-21T12:17:20.324Z,145
2017-01-21T12:18:19.902Z,145
2017-01-21T12:19:19.469Z,140
2017-01-21T12:20:19.824Z,140
2017-01-21T12:21:19.773Z,140
2017-01-21T12:22:20.107Z,140
2017-01-21T12:23:20.064Z,140
2017-01-21T12:24:19.247Z,140
2017-01-21T12:25:19.587Z,140
2017-01-21T12:26:19.560Z,145
2017-01-21T12:27:19.529Z,145
2017-01-21T12:28:19.083Z,145
2017-01-21T12:29:19.036Z,150
2017-01-21T12:30:18.986Z,155
2017-01-21T12:31:19.714Z,155
2017-01-21T12:32:19.289Z,150
2017-01-21T12:33:19.647Z,155
